createdAt,value
2018-04-04T00:01:19.566Z,90.20
2018-04-04T00:03:46.723Z,89.30
2018-04-04T00:06:13.928Z,89.80
2018-04-04T00:08:40.301Z,89.80
2018-04-04T00:11:07.439Z,89.70
2018-04-04T00:13:35.304Z,89.70
2018-04-04T00:16:01.770Z,89.70
2018-04-04T00:18:28.161Z,89.90
2018-04-04T00:20:54.543Z,90.00
2018-04-04T00:23:20.939Z,90.10
2018-04-04T00:25:48.797Z,90.10
2018-04-04T00:28:15.179Z,90.10
2018-04-04T00:30:41.552Z,90.10
2018-04-04T00:33:07.936Z,90.00
2018-04-04T00:35:34.321Z,89.60
2018-04-04T00:38:00.711Z,89.50
2018-04-04T00:40:27.153Z,90.20
2018-04-04T00:42:53.531Z,90.20
2018-04-04T00:45:20.716Z,90.10
2018-04-04T00:47:47.088Z,90.10
2018-04-04T00:50:13.500Z,90.00
2018-04-04T00:52:39.912Z,89.90
2018-04-04T00:55:06.283Z,90.10
2018-04-04T00:57:32.676Z,90.10
2018-04-04T00:59:59.180Z,90.40
2018-04-04T01:02:26.322Z,90.40
2018-04-04T01:04:53.448Z,90.00
2018-04-04T01:07:19.838Z,90.30
2018-04-04T01:09:46.203Z,90.20
2018-04-04T01:12:12.599Z,89.90
2018-04-04T01:14:38.968Z,89.50
2018-04-04T01:17:05.336Z,89.50
2018-04-04T01:19:32.477Z,88.70
2018-04-04T01:22:00.366Z,89.40
2018-04-04T01:24:27.492Z,89.60
2018-04-04T01:26:53.890Z,89.60
2018-04-04T01:29:20.263Z,89.50
2018-04-04T01:31:47.383Z,90.10
2018-04-04T01:34:13.776Z,89.60
2018-04-04T01:36:40.146Z,89.80
2018-04-04T01:39:06.542Z,90.00
2018-04-04T01:41:32.939Z,90.30
2018-04-04T01:44:00.083Z,89.80
2018-04-04T01:46:26.503Z,89.80
2018-04-04T01:48:52.942Z,89.80
2018-04-04T01:51:19.417Z,89.60
2018-04-04T01:53:45.878Z,89.30
2018-04-04T01:56:12.286Z,89.90
2018-04-04T01:58:38.665Z,90.00
2018-04-04T02:01:05.163Z,90.30
2018-04-04T02:03:31.559Z,90.50
2018-04-04T02:05:58.671Z,90.60
2018-04-04T02:08:25.059Z,90.50
2018-04-04T02:10:51.464Z,91.40
2018-04-04T02:13:17.855Z,91.30
2018-04-04T02:15:44.241Z,91.00
2018-04-04T02:18:11.376Z,90.30
2018-04-04T02:20:37.766Z,90.30
2018-04-04T02:23:04.168Z,89.30
2018-04-04T02:25:30.574Z,89.10
2018-04-04T02:27:57.709Z,90.10
2018-04-04T02:30:24.152Z,90.10
2018-04-04T02:32:50.486Z,90.50
2018-04-04T02:35:17.588Z,90.50
2018-04-04T02:37:43.964Z,90.50
2018-04-04T02:40:10.345Z,90.50
2018-04-04T02:42:36.719Z,90.40
2018-04-04T02:45:03.131Z,90.30
2018-04-04T02:47:29.514Z,90.00
2018-04-04T02:49:56.673Z,90.10
2018-04-04T02:52:23.068Z,90.10
2018-04-04T02:54:50.187Z,90.20
2018-04-04T02:57:16.692Z,90.30
2018-04-04T02:59:43.136Z,90.40
2018-04-04T03:02:09.511Z,90.70
2018-04-04T03:04:36.745Z,90.90
2018-04-04T03:07:03.157Z,91.00
2018-04-04T03:09:29.524Z,90.70
2018-04-04T03:11:55.933Z,90.30
2018-04-04T03:14:22.365Z,90.70
2018-04-04T03:16:48.803Z,90.60
2018-04-04T03:19:15.193Z,90.40
2018-04-04T03:21:42.317Z,90.30
2018-04-04T03:24:08.968Z,90.20
2018-04-04T03:26:36.089Z,90.00
2018-04-04T03:29:02.500Z,90.00
2018-04-04T03:31:28.900Z,90.10
2018-04-04T03:33:55.291Z,90.20
2018-04-04T03:36:21.671Z,90.30
2018-04-04T03:38:48.047Z,90.50
2018-04-04T03:41:14.431Z,90.20
2018-04-04T03:43:40.816Z,90.40
2018-04-04T03:46:07.958Z,90.10
2018-04-04T03:48:34.382Z,90.10
2018-04-04T03:51:02.298Z,89.90
2018-04-04T03:53:29.442Z,90.20
2018-04-04T03:55:56.559Z,90.20
2018-04-04T03:58:23.062Z,90.20
2018-04-04T04:00:49.448Z,90.20
2018-04-04T04:03:16.741Z,90.20
2018-04-04T04:05:43.373Z,90.20
2018-04-04T04:08:09.776Z,90.40
2018-04-04T04:10:36.916Z,90.30
2018-04-04T04:13:04.048Z,90.20
2018-04-04T04:15:31.197Z,90.40
2018-04-04T04:17:57.593Z,90.40
2018-04-04T04:20:23.979Z,90.50
2018-04-04T04:22:50.354Z,90.60
2018-04-04T04:25:16.738Z,90.90
2018-04-04T04:27:43.121Z,90.60
2018-04-04T04:30:09.506Z,90.50
2018-04-04T04:32:36.637Z,91.00
2018-04-04T04:35:03.029Z,90.90
2018-04-04T04:37:29.422Z,91.30
2018-04-04T04:39:55.847Z,90.60
2018-04-04T04:42:22.981Z,90.70
2018-04-04T04:44:50.883Z,90.60
2018-04-04T04:47:17.271Z,90.60
2018-04-04T04:49:47.174Z,90.90
2018-04-04T04:52:13.566Z,91.10
2018-04-04T04:54:40.726Z,91.10
2018-04-04T04:57:07.117Z,91.10
2018-04-04T04:59:33.538Z,91.20
2018-04-04T05:02:00.006Z,91.10
2018-04-04T05:04:26.668Z,90.90
2018-04-04T05:06:53.096Z,90.70
2018-04-04T05:09:19.570Z,90.60
2018-04-04T05:11:46.047Z,90.80
2018-04-04T05:14:13.221Z,91.20
2018-04-04T05:16:39.611Z,91.10
2018-04-04T05:19:05.991Z,91.30
2018-04-04T05:21:32.365Z,91.40
2018-04-04T05:23:58.754Z,91.20
2018-04-04T05:26:25.147Z,91.20
2018-04-04T05:28:52.277Z,91.30
2018-04-04T05:31:18.662Z,91.30
2018-04-04T05:33:45.038Z,91.40
2018-04-04T05:36:11.432Z,91.50
2018-04-04T05:38:37.886Z,91.80
2018-04-04T05:41:04.284Z,91.80
2018-04-04T05:43:30.682Z,91.90
2018-04-04T05:45:57.106Z,91.60
2018-04-04T05:48:23.498Z,91.70
2018-04-04T05:50:50.089Z,91.60
2018-04-04T05:53:16.467Z,91.50
2018-04-04T05:55:42.985Z,91.40
2018-04-04T05:58:13.325Z,91.50
2018-04-04T06:00:39.751Z,91.50
2018-04-04T06:03:06.117Z,91.30
2018-04-04T06:05:32.612Z,91.30
2018-04-04T06:07:59.027Z,91.30
2018-04-04T06:10:26.305Z,91.10
2018-04-04T06:12:52.762Z,91.10
2018-04-04T06:15:19.212Z,91.30
2018-04-04T06:17:45.628Z,91.00
2018-04-04T06:20:12.035Z,91.00
2018-04-04T06:22:38.420Z,91.00
2018-04-04T06:25:04.846Z,91.00
2018-04-04T06:27:31.283Z,90.90
2018-04-04T06:29:59.135Z,90.60
2018-04-04T06:32:25.555Z,90.50
2018-04-04T06:34:51.949Z,90.50
2018-04-04T06:37:19.086Z,90.60
2018-04-04T06:39:46.214Z,90.50
2018-04-04T06:42:14.084Z,90.30
2018-04-04T06:44:40.493Z,90.30
2018-04-04T06:47:06.884Z,90.30
2018-04-04T06:49:33.259Z,90.00
2018-04-04T06:51:59.678Z,88.30
2018-04-04T06:54:26.078Z,87.80
2018-04-04T06:56:52.475Z,87.30
2018-04-04T06:59:18.863Z,85.60
2018-04-04T07:01:46.060Z,84.00
2018-04-04T07:04:12.439Z,84.00
2018-04-04T07:06:38.823Z,81.80
2018-04-04T07:09:05.216Z,80.60
2018-04-04T07:11:31.669Z,79.60
2018-04-04T07:13:58.255Z,78.30
2018-04-04T07:16:24.638Z,78.70
2018-04-04T07:18:51.058Z,76.60
2018-04-04T07:21:17.592Z,78.30
2018-04-04T07:23:44.041Z,79.70
2018-04-04T07:26:10.443Z,80.10
2018-04-04T07:28:36.827Z,81.00
2018-04-04T07:31:03.988Z,80.70
2018-04-04T07:33:31.129Z,80.20
2018-04-04T07:35:58.275Z,80.50
2018-04-04T07:38:24.699Z,80.50
2018-04-04T07:40:52.610Z,81.40
2018-04-04T07:43:19.027Z,81.50
2018-04-04T07:45:45.431Z,80.30
2018-04-04T07:48:11.836Z,80.90
2018-04-04T07:50:38.316Z,79.50
2018-04-04T07:53:05.473Z,79.80
2018-04-04T07:55:32.576Z,79.40
2018-04-04T07:57:58.955Z,79.30
2018-04-04T08:00:26.074Z,81.00
2018-04-04T08:02:52.472Z,80.90
2018-04-04T08:05:18.847Z,81.70
2018-04-04T08:07:45.229Z,80.70
2018-04-04T08:10:11.632Z,80.70
2018-04-04T08:12:38.822Z,77.70
2018-04-04T08:15:05.298Z,77.70
2018-04-04T08:17:32.532Z,76.70
2018-04-04T08:19:58.916Z,76.60
2018-04-04T08:22:25.453Z,76.60
2018-04-04T08:24:51.846Z,76.70
2018-04-04T08:27:18.317Z,76.80
2018-04-04T08:29:44.777Z,75.70
2018-04-04T08:32:11.223Z,76.80
2018-04-04T08:34:37.663Z,76.50
2018-04-04T08:37:04.102Z,76.30
2018-04-04T08:39:30.490Z,76.00
2018-04-04T08:41:56.894Z,75.60
2018-04-04T08:44:24.032Z,75.90
2018-04-04T08:46:50.488Z,75.80
2018-04-04T08:49:16.914Z,75.70
2018-04-04T08:51:44.084Z,74.90
2018-04-04T08:54:10.483Z,74.90
2018-04-04T08:56:36.907Z,75.80
2018-04-04T08:59:04.186Z,74.10
2018-04-04T09:01:31.378Z,73.60
2018-04-04T09:03:57.794Z,73.60
2018-04-04T09:06:24.209Z,73.50
2018-04-04T09:08:50.637Z,75.10
2018-04-04T09:11:17.779Z,76.20
2018-04-04T09:13:44.949Z,73.80
2018-04-04T09:16:11.582Z,73.90
2018-04-04T09:18:38.043Z,74.30
2018-04-04T09:21:04.868Z,72.90
2018-04-04T09:23:31.280Z,73.10
2018-04-04T09:25:57.808Z,72.30
2018-04-04T09:28:24.969Z,72.10
2018-04-04T09:30:52.131Z,72.70
2018-04-04T09:33:18.535Z,72.60
2018-04-04T09:35:45.720Z,71.90
2018-04-04T09:38:12.232Z,71.80
2018-04-04T09:40:39.402Z,69.50
2018-04-04T09:43:05.809Z,69.50
2018-04-04T09:45:32.981Z,67.80
2018-04-04T09:47:59.369Z,67.80
2018-04-04T09:50:25.776Z,67.00
2018-04-04T09:52:52.213Z,67.10
2018-04-04T09:55:18.619Z,66.60
2018-04-04T09:57:45.062Z,66.50
2018-04-04T10:00:11.580Z,66.30
2018-04-04T10:02:37.960Z,66.80
2018-04-04T10:05:04.376Z,66.70
2018-04-04T10:07:30.789Z,65.70
2018-04-04T10:09:57.211Z,65.40
2018-04-04T10:12:23.650Z,63.30
2018-04-04T10:14:50.072Z,63.50
2018-04-04T10:17:16.489Z,61.40
2018-04-04T10:19:43.673Z,62.40
2018-04-04T10:22:10.824Z,61.80
2018-04-04T10:24:37.278Z,61.80
2018-04-04T10:27:03.707Z,61.40
2018-04-04T10:29:30.174Z,60.10
2018-04-04T10:31:57.318Z,60.60
2018-04-04T10:34:23.717Z,60.40
2018-04-04T10:36:50.116Z,60.70
2018-04-04T10:39:17.263Z,59.80
2018-04-04T10:41:44.423Z,62.80
2018-04-04T10:44:10.807Z,62.70
2018-04-04T10:46:37.233Z,61.60
2018-04-04T10:49:03.643Z,63.60
2018-04-04T10:51:30.047Z,62.90
2018-04-04T10:53:57.209Z,60.60
2018-04-04T10:56:23.633Z,60.60
2018-04-04T10:58:50.846Z,61.00
2018-04-04T11:01:17.261Z,61.00
2018-04-04T11:03:43.677Z,59.60
2018-04-04T11:06:10.079Z,61.20
2018-04-04T11:08:36.496Z,60.80
2018-04-04T11:11:03.699Z,61.80
2018-04-04T11:13:30.116Z,61.80
2018-04-04T11:15:56.546Z,62.30
2018-04-04T11:18:22.948Z,59.70
2018-04-04T11:20:50.092Z,59.00
2018-04-04T11:23:17.430Z,61.30
2018-04-04T11:25:43.843Z,60.50
2018-04-04T11:28:10.306Z,59.30
2018-04-04T11:30:37.449Z,58.40
2018-04-04T11:33:03.859Z,58.90
2018-04-04T11:35:30.401Z,57.20
2018-04-04T11:37:56.810Z,56.40
2018-04-04T11:40:23.205Z,57.40
2018-04-04T11:42:50.340Z,56.50
2018-04-04T11:45:16.746Z,56.60
2018-04-04T11:47:43.147Z,56.90
2018-04-04T11:50:09.543Z,56.90
2018-04-04T11:52:35.940Z,56.90
2018-04-04T11:55:02.353Z,58.30
2018-04-04T11:57:28.783Z,57.60
2018-04-04T11:59:55.196Z,57.70
2018-04-04T12:02:22.406Z,58.10
2018-04-04T12:04:48.828Z,57.90
2018-04-04T12:07:15.237Z,58.00
2018-04-04T12:09:41.668Z,57.40
2018-04-04T12:12:08.056Z,57.90
2018-04-04T12:14:34.460Z,57.70
2018-04-04T12:17:00.855Z,57.10
2018-04-04T12:19:27.263Z,57.40
2018-04-04T12:21:54.430Z,57.40
2018-04-04T12:24:20.892Z,57.30
2018-04-04T12:26:47.441Z,58.20
2018-04-04T12:29:14.076Z,57.80
2018-04-04T12:31:40.499Z,57.60
2018-04-04T12:34:06.939Z,57.10
2018-04-04T12:36:33.423Z,57.30
2018-04-04T12:39:00.574Z,57.80
2018-04-04T12:41:27.976Z,57.80
2018-04-04T12:43:54.393Z,57.60
2018-04-04T12:46:20.820Z,56.20
2018-04-04T12:48:47.237Z,55.00
2018-04-04T12:51:14.389Z,56.00
2018-04-04T12:53:41.524Z,56.60
2018-04-04T12:56:07.963Z,56.50
2018-04-04T12:58:35.143Z,57.10
2018-04-04T13:01:01.563Z,57.10
2018-04-04T13:03:27.979Z,55.00
2018-04-04T13:05:55.120Z,54.80
2018-04-04T13:08:22.315Z,56.00
2018-04-04T13:10:48.769Z,55.40
2018-04-04T13:13:15.206Z,55.90
2018-04-04T13:15:41.618Z,55.50
2018-04-04T13:18:08.036Z,56.00
2018-04-04T13:20:34.437Z,56.60
2018-04-04T13:23:01.585Z,56.00
2018-04-04T13:25:28.738Z,56.50
2018-04-04T13:27:55.946Z,57.10
2018-04-04T13:30:22.365Z,57.10
2018-04-04T13:32:48.777Z,57.70
2018-04-04T13:35:15.925Z,55.60
2018-04-04T13:37:43.241Z,56.90
2018-04-04T13:40:09.653Z,56.80
2018-04-04T13:42:36.036Z,56.90
2018-04-04T13:45:03.241Z,57.20
2018-04-04T13:47:29.638Z,57.20
2018-04-04T13:49:56.045Z,57.30
2018-04-04T13:52:23.189Z,57.90
2018-04-04T13:54:50.356Z,57.30
2018-04-04T13:57:17.498Z,57.80
2018-04-04T13:59:44.695Z,58.00
2018-04-04T14:02:11.108Z,58.00
2018-04-04T14:04:38.264Z,56.90
2018-04-04T14:07:04.694Z,56.90
2018-04-04T14:09:31.108Z,56.20
2018-04-04T14:11:58.252Z,55.80
2018-04-04T14:14:25.411Z,57.00
2018-04-04T14:16:52.549Z,56.40
2018-04-04T14:19:19.688Z,55.10
2018-04-04T14:21:46.834Z,55.50
2018-04-04T14:24:13.272Z,55.50
2018-04-04T14:26:39.654Z,56.00
2018-04-04T14:29:06.040Z,56.30
2018-04-04T14:31:33.228Z,56.10
2018-04-04T14:33:59.912Z,56.10
2018-04-04T14:36:26.313Z,55.40
2018-04-04T14:38:52.837Z,54.40
2018-04-04T14:41:19.239Z,55.20
2018-04-04T14:43:46.365Z,55.80
2018-04-04T14:46:12.763Z,55.30
2018-04-04T14:48:39.218Z,55.30
2018-04-04T14:51:06.452Z,55.90
2018-04-04T14:53:32.877Z,55.90
2018-04-04T14:55:59.298Z,56.80
2018-04-04T14:58:25.696Z,56.80
2018-04-04T15:00:52.094Z,56.00
2018-04-04T15:03:18.499Z,56.00
2018-04-04T15:05:44.898Z,56.70
2018-04-04T15:08:12.036Z,56.80
2018-04-04T15:10:38.443Z,56.70
2018-04-04T15:13:04.848Z,56.70
2018-04-04T15:15:31.246Z,56.50
2018-04-04T15:17:57.637Z,56.80
2018-04-04T15:20:24.046Z,56.50
2018-04-04T15:22:50.456Z,56.10
2018-04-04T15:25:16.852Z,56.30
2018-04-04T15:27:44.797Z,57.10
2018-04-04T15:30:11.209Z,57.00
2018-04-04T15:32:37.598Z,57.10
2018-04-04T15:35:04.018Z,57.70
2018-04-04T15:37:32.002Z,57.80
2018-04-04T15:39:59.223Z,58.30
2018-04-04T15:42:25.642Z,58.30
2018-04-04T15:44:53.626Z,58.20
2018-04-04T15:47:20.382Z,58.10
2018-04-04T15:49:46.876Z,58.20
2018-04-04T15:52:13.314Z,58.40
2018-04-04T15:54:40.529Z,58.20
2018-04-04T15:57:07.673Z,58.50
2018-04-04T15:59:34.861Z,59.00
2018-04-04T16:02:01.295Z,59.00
2018-04-04T16:04:27.708Z,59.00
2018-04-04T16:06:54.837Z,57.90
2018-04-04T16:09:21.996Z,58.40
2018-04-04T16:11:49.168Z,58.10
2018-04-04T16:14:15.567Z,58.00
2018-04-04T16:16:41.956Z,58.60
2018-04-04T16:19:08.330Z,58.70
2018-04-04T16:21:36.996Z,59.00
2018-04-04T16:24:03.419Z,57.60
2018-04-04T16:26:29.810Z,57.10
2018-04-04T16:28:56.215Z,57.30
2018-04-04T16:31:23.373Z,57.70
2018-04-04T16:33:50.526Z,58.20
2018-04-04T16:36:17.681Z,57.90
2018-04-04T16:38:44.855Z,57.80
2018-04-04T16:41:11.444Z,57.70
2018-04-04T16:43:37.865Z,57.80
2018-04-04T16:46:04.289Z,57.90
2018-04-04T16:48:30.827Z,58.10
2018-04-04T16:50:57.437Z,58.40
2018-04-04T16:53:24.418Z,58.20
2018-04-04T16:55:50.834Z,58.20
2018-04-04T16:58:17.249Z,58.40
2018-04-04T17:00:43.644Z,58.40
2018-04-04T17:03:11.538Z,58.40
2018-04-04T17:05:37.938Z,58.40
2018-04-04T17:08:05.180Z,58.60
2018-04-04T17:10:31.612Z,59.20
2018-04-04T17:12:57.974Z,59.20
2018-04-04T17:15:24.406Z,59.10
2018-04-04T17:17:51.548Z,59.50
2018-04-04T17:20:18.725Z,58.90
2018-04-04T17:22:45.132Z,58.90
2018-04-04T17:25:11.546Z,58.90
2018-04-04T17:27:38.709Z,59.10
2018-04-04T17:30:05.136Z,59.10
2018-04-04T17:32:32.305Z,59.50
2018-04-04T17:34:59.485Z,61.20
2018-04-04T17:37:26.072Z,61.10
2018-04-04T17:39:53.284Z,61.70
2018-04-04T17:42:19.732Z,61.70
2018-04-04T17:44:46.184Z,62.20
2018-04-04T17:47:12.591Z,63.00
2018-04-04T17:49:39.085Z,63.60
2018-04-04T17:52:05.556Z,63.80
2018-04-04T17:54:32.770Z,64.30
2018-04-04T17:56:59.276Z,65.50
2018-04-04T17:59:25.801Z,66.40
2018-04-04T18:01:52.341Z,67.20
2018-04-04T18:04:19.608Z,68.60
2018-04-04T18:06:46.637Z,68.60
2018-04-04T18:09:13.241Z,69.00
2018-04-04T18:11:39.730Z,69.70
2018-04-04T18:14:06.280Z,70.10
2018-04-04T18:16:34.776Z,70.00
2018-04-04T18:19:01.334Z,69.90
2018-04-04T18:21:27.854Z,69.20
2018-04-04T18:23:54.447Z,69.10
2018-04-04T18:26:21.865Z,69.90
2018-04-04T18:28:49.604Z,71.00
2018-04-04T18:31:17.197Z,71.60
2018-04-04T18:33:45.434Z,72.40
2018-04-04T18:36:13.946Z,72.40
2018-04-04T18:38:41.233Z,74.70
2018-04-04T18:41:08.097Z,74.00
2018-04-04T18:43:35.646Z,72.80
2018-04-04T18:46:02.318Z,73.70
2018-04-04T18:48:30.721Z,73.00
2018-04-04T18:50:57.443Z,75.00
2018-04-04T18:53:27.813Z,75.00
2018-04-04T18:55:54.354Z,74.60
2018-04-04T18:58:20.938Z,74.20
2018-04-04T19:00:47.648Z,73.10
2018-04-04T19:03:14.771Z,74.50
2018-04-04T19:05:42.767Z,74.10
2018-04-04T19:08:11.697Z,75.60
2018-04-04T19:10:39.099Z,75.50
2018-04-04T19:13:05.855Z,76.20
2018-04-04T19:15:33.115Z,74.90
2018-04-04T19:17:59.682Z,76.40
2018-04-04T19:20:26.711Z,78.20
2018-04-04T19:22:54.224Z,78.80
2018-04-04T19:25:20.810Z,78.80
2018-04-04T19:27:48.212Z,78.70
2018-04-04T19:30:14.733Z,77.90
2018-04-04T19:32:42.653Z,77.70
2018-04-04T19:35:09.180Z,78.40
2018-04-04T19:37:37.064Z,80.30
2018-04-04T19:40:03.623Z,80.30
2018-04-04T19:42:30.257Z,80.90
2018-04-04T19:44:56.663Z,80.90
2018-04-04T19:47:24.035Z,81.80
2018-04-04T19:49:51.309Z,82.40
2018-04-04T19:52:17.767Z,82.20
2018-04-04T19:54:45.232Z,81.00
2018-04-04T19:57:13.486Z,83.00
2018-04-04T19:59:40.680Z,82.40
2018-04-04T20:02:08.104Z,82.70
2018-04-04T20:04:36.142Z,82.40
2018-04-04T20:07:03.017Z,82.30
2018-04-04T20:09:29.559Z,83.00
2018-04-04T20:11:56.197Z,83.40
2018-04-04T20:14:23.558Z,82.60
2018-04-04T20:16:50.810Z,82.60
2018-04-04T20:19:17.321Z,82.60
2018-04-04T20:21:43.862Z,83.50
2018-04-04T20:24:11.209Z,84.90
2018-04-04T20:26:38.146Z,84.90
2018-04-04T20:29:04.564Z,84.40
2018-04-04T20:31:30.998Z,83.70
2018-04-04T20:33:57.443Z,84.00
2018-04-04T20:36:24.623Z,83.50
2018-04-04T20:38:51.842Z,84.00
2018-04-04T20:41:18.231Z,83.90
2018-04-04T20:43:44.644Z,84.40
2018-04-04T20:46:11.032Z,85.10
2018-04-04T20:48:37.448Z,84.70
2018-04-04T20:51:04.640Z,86.40
2018-04-04T20:53:31.062Z,86.30
2018-04-04T20:55:57.481Z,86.00
2018-04-04T20:58:23.893Z,86.60
2018-04-04T21:00:51.031Z,86.90
2018-04-04T21:03:18.194Z,86.30
2018-04-04T21:05:45.402Z,86.10
2018-04-04T21:08:12.716Z,86.00
2018-04-04T21:10:39.162Z,86.10
2018-04-04T21:13:05.646Z,87.20
2018-04-04T21:15:32.789Z,88.20
2018-04-04T21:17:59.199Z,87.70
2018-04-04T21:20:25.594Z,88.90
2018-04-04T21:22:52.733Z,90.60
2018-04-04T21:25:19.866Z,92.00
2018-04-04T21:27:47.019Z,93.00
2018-04-04T21:30:13.461Z,93.00
2018-04-04T21:32:40.605Z,92.50
2018-04-04T21:35:07.741Z,92.40
2018-04-04T21:37:34.185Z,92.20
2018-04-04T21:40:00.666Z,91.40
2018-04-04T21:42:27.061Z,90.30
2018-04-04T21:44:54.183Z,89.90
2018-04-04T21:47:20.572Z,89.80
2018-04-04T21:49:46.998Z,90.30
2018-04-04T21:52:13.372Z,90.40
2018-04-04T21:54:40.504Z,90.30
2018-04-04T21:57:06.903Z,90.30
2018-04-04T21:59:33.285Z,90.30
2018-04-04T22:01:59.669Z,90.30
2018-04-04T22:04:26.056Z,90.90
2018-04-04T22:06:52.544Z,91.40
2018-04-04T22:09:18.993Z,91.00
2018-04-04T22:11:45.373Z,91.20
2018-04-04T22:14:12.516Z,90.20
2018-04-04T22:16:38.906Z,90.20
2018-04-04T22:19:05.342Z,90.10
2018-04-04T22:21:31.760Z,89.10
2018-04-04T22:23:58.147Z,89.00
2018-04-04T22:26:24.513Z,88.60
2018-04-04T22:28:50.893Z,88.10
2018-04-04T22:31:17.348Z,87.80
2018-04-04T22:33:44.496Z,87.00
2018-04-04T22:36:10.888Z,86.90
2018-04-04T22:38:37.275Z,86.20
2018-04-04T22:41:04.411Z,85.20
2018-04-04T22:43:30.806Z,85.10
2018-04-04T22:45:57.224Z,84.30
2018-04-04T22:48:23.643Z,83.80
2018-04-04T22:50:50.031Z,83.30
2018-04-04T22:53:17.904Z,83.60
2018-04-04T22:55:44.278Z,83.50
2018-04-04T22:58:10.665Z,83.40
2018-04-04T23:00:38.527Z,83.40
2018-04-04T23:03:04.927Z,83.40
2018-04-04T23:05:31.321Z,83.80
2018-04-04T23:07:58.449Z,83.10
2018-04-04T23:10:26.307Z,82.80
2018-04-04T23:12:52.720Z,82.80
2018-04-04T23:15:20.108Z,82.10
2018-04-04T23:17:47.236Z,82.10
2018-04-04T23:20:13.681Z,82.10
2018-04-04T23:22:41.692Z,81.60
2018-04-04T23:25:08.089Z,81.70
2018-04-04T23:27:35.248Z,80.90
2018-04-04T23:30:01.637Z,80.80
2018-04-04T23:32:28.037Z,80.50
2018-04-04T23:34:55.219Z,80.10
2018-04-04T23:37:21.620Z,80.00
2018-04-04T23:39:48.038Z,79.60
2018-04-04T23:42:15.172Z,80.90
2018-04-04T23:44:41.559Z,80.90
2018-04-04T23:47:07.947Z,81.20
2018-04-04T23:49:35.069Z,81.20
2018-04-04T23:52:01.447Z,81.20
2018-04-04T23:54:27.841Z,80.30
2018-04-04T23:56:54.239Z,80.60
2018-04-04T23:59:20.701Z,80.80
